x

Great Slave Lake (45141) Wave Buoy

10:00am - Wed 20th Aug 2014 All times are UTC.

  • Sig Wave height 2.6ft
  • Peak Period 15s
  • Wind
    13mph, 18mph gusts
  • Sea Temp 57°f
  • Air Temp 52°f
  • Sea Pressure 1011.8mb

More Historic Weather Station data

Upgrade to MSW Pro to gain access to the past 30 days of data for over 8000 Wavebouys and Weather Stations around the globe.

Join Pro

Comparision Forecast

View Surf forecast
   
Wed 08/20 10:00am 2.5ft 15s 13 18 mph 1011.8mb 57f 52f
9:00am 2.5ft 5s 13 16 mph 1011.3mb 57f 52f
8:00am 2ft 5s 13 16 mph 1010.9mb 57f 52f
7:00am  -   -  9
mph
1010.9mb - 52f
6:00am 2.5ft 5s 9 11 mph 1010.6mb 57f 52f
5:00am 3ft 15s 11 13 mph 1010.3mb 57f 51f
4:00am  -   -  13
mph
1009.9mb 57f 51f
2:00am 3.5ft 5s 13 18 mph 1009.3mb 57f 52f
1:00am 3.5ft 5s 16 18 mph 1008.9mb 57f 53f
12:00am 3.5ft 5s 16 18 mph 1008.6mb 57f 52f
Tue 08/19 10:00pm  -   -  18
mph
- - 52f
9:00pm 4ft 5s 16 20 mph 1007.1mb 57f 51f
8:00pm 4.5ft 6s 18 22 mph 1006.5mb 57f 51f
6:00pm 4.5ft 5s 16 18 mph 1005.7mb 57f 51f
5:00pm 4.5ft 6s 16 20 mph 1005.1mb 57f 50f
4:00pm 4.5ft 6s 18 20 mph 1004.6mb 57f 50f
3:00pm 4.5ft 6s 18 22 mph 1003.9mb 57f 50f
2:00pm  -   -  18
mph
1003.8mb - 50f
1:00pm 4.5ft 6s 18 22 mph 1003.6mb 57f 51f
12:00pm 4.5ft 6s 18 22 mph 1003.3mb 57f 51f
11:00am  -   -  18
mph
1002.6mb - 51f
9:00am 5ft 6s 18 22 mph 1001.8mb 58f 52f
8:00am  -   -  20
mph
- - -
6:00am 4.5ft 6s 18 20 mph 1000.9mb 58f 53f
5:00am 4.5ft 6s 18 20 mph 1000.8mb 58f 54f
4:00am 4.5ft 6s 18 20 mph 1000.7mb 58f 54f
3:00am 4.5ft 6s 16 18 mph 1000.4mb 58f 56f
2:00am 4.5ft 6s 13 16 mph 1000.2mb 58f 56f
1:00am 4.5ft 6s 16 18 mph 1000.2mb 58f 56f
12:00am 4.5ft 6s 18 22 mph 1000.1mb 58f 56f
Mon 08/18 10:00pm 4ft 5s 20
mph
999.7mb 58f 57f
9:00pm 4ft 5s 18 22 mph 999.6mb 58f 57f
7:00pm 4.5ft 5s 20 25 mph 999.9mb 58f 56f
6:00pm 5ft 5s 22 29 mph 1000.3mb 58f 56f
5:00pm 5ft 5s 27 31 mph 1001mb 58f 55f
4:00pm 4.5ft 5s 25 31 mph 1002mb 58f 55f
3:00pm 4.5ft 4s 27 31 mph 1002.8mb 59f 55f
2:00pm 3.5ft 4s 25 29 mph 1003.4mb 59f 56f
1:00pm 3.5ft 4s 22 27 mph 1004.2mb 59f 56f
12:00pm 3ft 4s 20 22 mph 1005mb 59f 56f
11:00am 3ft 15s 20 25 mph 1005.2mb 59f 56f
10:00am 2.5ft 14s 18 22 mph 1006mb 59f 57f
9:00am 2.5ft 15s 18 20 mph 1006.7mb 59f 58f
8:00am 2.5ft 15s 18 22 mph 1006.9mb 59f 58f
7:00am 2ft 14s 18 20 mph 1008mb 59f 58f
6:00am 1.6ft 15s 16 18 mph 1008.9mb 59f 58f
5:00am 1.6ft 14s 16 18 mph 1009.2mb 59f 58f
4:00am 1.3ft 15s 13
mph
1009.8mb 60f 58f
2:00am 1.3ft 15s 11 13 mph 1010.2mb 60f 58f
1:00am 1.3ft 12s 11 13 mph 1010.7mb 60f 58f
12:00am 1.6ft 4s 11 13 mph 1010.9mb 60f 59f
Sun 08/17 11:00pm 1.6ft 15s 13 16 mph 1011.1mb 60f 59f
10:00pm 2.5ft 4s 11 13 mph 1011.2mb 60f 60f
9:00pm 2.5ft 15s 13 16 mph 1011mb 60f 60f
8:00pm 2.5ft 15s 16 18 mph 1010.6mb 60f 59f
7:00pm  -   -  16
mph
1010.1mb - 60f
6:00pm 2ft 14s 18 22 mph 1009.5mb 60f 60f
5:00pm 1.6ft 15s 11 13 mph 1009mb 60f 62f
4:00pm 1.6ft 3s 13 16 mph 1008.3mb 60f 62f
3:00pm 1.3ft 3s 13 18 mph 1007.8mb 60f 61f
2:00pm 1ft 15s 13 16 mph 1007.7mb 60f 62f
1:00pm 0.7ft 2s 13 16 mph 1007.7mb 60f 61f
12:00pm 0.7ft 14s 11 13 mph 1007.7mb 60f 62f
11:00am 0.7ft 13s 11 13 mph 1007.5mb 60f 62f
10:00am 0.7ft 14s 11 13 mph 1007.4mb 60f 62f
9:00am 1ft 14s 9
mph
1007.3mb 60f 62f
8:00am 1ft 15s 9 11 mph 1007.3mb 60f 63f
7:00am 1.3ft 15s 9 11 mph 1006.5mb 60f 64f
6:00am 1.6ft 15s 4 9 mph 1006.5mb 60f 64f
5:00am 2ft 14s 13 16 mph 1005.5mb 60f 64f
4:00am 2ft 3s 13 16 mph 1004.8mb 60f 68f
3:00am 2.5ft 14s 18 20 mph 1003.8mb 60f 67f
2:00am 2.5ft 15s 16 18 mph 1003mb 60f 67f
1:00am 1.3ft 15s 18 20 mph 1002.3mb 61f 70f
12:00am 0.7ft 2s 13 18 mph 1001.9mb 61f 69f
Sat 08/16 11:00pm 0.7ft 4s 11
mph
1001.9mb 61f 67f
10:00pm 0.7ft 15s 7 9 mph 1002.8mb 62f 65f
9:00pm 0.7ft 14s 4
mph
1003.7mb 61f 64f
8:00pm 1ft 14s 7
mph
1004mb 60f 64f
7:00pm 1ft 15s 9
mph
1004.3mb 60f 63f
6:00pm 1ft 15s 9 11 mph 1004.4mb 60f 63f
5:00pm 1.3ft 15s 11 13 mph 1004.2mb 60f 64f
4:00pm 1.6ft 14s 9 11 mph 1004.3mb 60f 63f
3:00pm 1.3ft 14s 11 13 mph 1004.7mb 60f 62f
2:00pm 1.3ft 15s 13
mph
1005.2mb 60f 63f
1:00pm 1.3ft 14s 11 13 mph 1005.7mb 60f 62f
12:00pm 1.3ft 15s 9 11 mph 1006.2mb 60f 61f